Whitacre, Virginia
Current Conditions -  °F | °C
As of 6:53 AM on Thursday 23 Oct 2014 (Local Time) from KMRB Reporting Station
Broken Clouds Broken Clouds  
Wind Chill: 51°   Ceiling: 7500
Heat Index: 51°   Visibility: 10mi
Dew Point: 39°   Wind: 16mph
Humidity: 63%   Direction: 320°NW
Pressure: 29.96"   Gusts: 24mph
Location:  39.3835°N, 78.3051°W
Report Text: KMRB 231053Z 32014G21KT 10SM BKN075 11/04 A2996 RMK AO2 PK WND 32029/1035 SLP144 T01060039
Loading
Personal Weather Stations






























Interactive Weather Map
Tropical Storm Tracking
New forecast layout! Learn more

10-Day Weather Forecast

Advertisements
Track Severe Weather on mobile